Time;durP1;ratioP1;P1;durP2;ratioP2;P2;SDS_P1;SDS_P2;PMS_P1;PMS_P2;Temp;Humidity;BMP_temperature;BMP_pressure;BME280_temperature;BME280_humidity;BME280_pressure;Samples;Min_cycle;Max_cycle;Signal;HPM_P1;HPM_P2
2023/06/26 00:00:44;;;;;;;7.50;5.78;;;;;;;;;;5026698;28;20073;-72
2023/06/26 00:03:13;;;;;;;9.55;6.18;;;;;;;;;;5025612;28;20029;-72
2023/06/26 00:05:39;;;;;;;8.90;6.10;;;;;;;;;;5026814;28;20030;-73
2023/06/26 00:08:06;;;;;;;8.88;5.82;;;;;;;;;;5025590;28;20036;-72
2023/06/26 00:10:32;;;;;;;18.23;5.50;;;;;;;;;;5052118;28;20037;-72
2023/06/26 00:12:58;;;;;;;7.10;5.50;;;;;;;;;;5024375;28;20065;-73
2023/06/26 00:15:24;;;;;;;9.82;6.00;;;;;;;;;;5021925;28;20068;-73
2023/06/26 00:17:50;;;;;;;6.53;5.60;;;;;;;;;;5028166;28;20360;-73
2023/06/26 00:20:17;;;;;;;8.60;5.57;;;;;;;;;;5022430;28;20037;-73
2023/06/26 00:22:44;;;;;;;9.07;6.32;;;;;;;;;;5025975;28;20467;-73
2023/06/26 00:25:10;;;;;;;6.60;5.50;;;;;;;;;;5024159;28;20095;-72
2023/06/26 00:27:36;;;;;;;7.30;6.60;;;;;;;;;;5022680;28;20030;-74
2023/06/26 00:30:02;;;;;;;8.98;6.25;;;;;;;;;;5024070;28;20067;-74
2023/06/26 00:32:28;;;;;;;6.70;5.63;;;;;;;;;;5027290;28;20022;-74
2023/06/26 00:34:54;;;;;;;7.55;6.22;;;;;;;;;;5024643;28;20060;-73
2023/06/26 00:37:21;;;;;;;20.42;7.00;;;;;;;;;;5025706;28;20447;-72
2023/06/26 00:39:47;;;;;;;7.05;6.10;;;;;;;;;;5020624;28;20045;-74
2023/06/26 00:42:13;;;;;;;7.63;6.57;;;;;;;;;;5018622;28;20040;-73
2023/06/26 00:44:39;;;;;;;11.10;6.38;;;;;;;;;;5021360;28;20376;-74
2023/06/26 00:47:06;;;;;;;8.25;5.90;;;;;;;;;;5022665;28;20757;-75
2023/06/26 00:49:32;;;;;;;9.98;6.25;;;;;;;;;;5051956;28;20030;-74
2023/06/26 00:51:58;;;;;;;8.50;5.57;;;;;;;;;;5020732;28;20029;-74
2023/06/26 00:54:24;;;;;;;8.45;6.15;;;;;;;;;;5020780;28;20116;-74
2023/06/26 00:56:50;;;;;;;7.38;6.30;;;;;;;;;;5048387;28;20486;-74
2023/06/26 00:59:16;;;;;;;11.82;6.68;;;;;;;;;;5020993;28;20041;-74
2023/06/26 01:01:42;;;;;;;7.28;5.97;;;;;;;;;;5020583;28;20030;-74
2023/06/26 01:04:17;;;;;;;8.23;6.15;;;;;;;;;;5021141;28;20110;-72
2023/06/26 01:06:48;;;;;;;10.98;7.07;;;;;;;;;;5020783;28;20037;-73
2023/06/26 01:09:15;;;;;;;6.80;5.80;;;;;;;;;;5020420;28;20022;-74
2023/06/26 01:11:41;;;;;;;9.43;6.75;;;;;;;;;;5019328;28;20403;-74
2023/06/26 01:14:07;;;;;;;7.65;6.57;;;;;;;;;;5016628;28;21346;-74
2023/06/26 01:16:33;;;;;;;9.20;7.25;;;;;;;;;;5020848;28;20802;-73
2023/06/26 01:19:00;;;;;;;9.15;6.85;;;;;;;;;;5018512;28;20438;-74
2023/06/26 01:21:32;;;;;;;10.18;6.82;;;;;;;;;;5022814;28;20038;-74
2023/06/26 01:24:27;;;;;;;10.85;6.38;;;;;;;;;;5020113;28;20037;-73
2023/06/26 01:26:53;;;;;;;6.97;6.28;;;;;;;;;;5003710;28;20037;-74
2023/06/26 01:29:23;;;;;;;8.35;6.30;;;;;;;;;;5018957;28;20379;-73
2023/06/26 01:31:49;;;;;;;8.25;6.40;;;;;;;;;;5017945;28;20113;-74
2023/06/26 01:34:18;;;;;;;7.43;6.70;;;;;;;;;;5020292;28;20033;-74
2023/06/26 01:36:45;;;;;;;7.50;6.25;;;;;;;;;;5019710;28;20483;-74
2023/06/26 01:39:13;;;;;;;12.10;7.25;;;;;;;;;;5017933;28;20029;-73
2023/06/26 01:41:39;;;;;;;8.93;7.13;;;;;;;;;;5021551;28;20025;-74
2023/06/26 01:44:05;;;;;;;11.18;6.45;;;;;;;;;;5019671;28;20326;-75
2023/06/26 01:46:41;;;;;;;10.27;6.75;;;;;;;;;;5017748;28;20033;-73
2023/06/26 01:49:19;;;;;;;9.35;7.57;;;;;;;;;;5034433;28;20049;-74
2023/06/26 01:51:52;;;;;;;9.95;7.07;;;;;;;;;;5018413;28;20555;-74
2023/06/26 01:54:19;;;;;;;11.00;6.85;;;;;;;;;;5018747;28;20515;-74
2023/06/26 01:56:46;;;;;;;12.50;7.50;;;;;;;;;;5019668;28;20509;-74
2023/06/26 01:59:16;;;;;;;8.15;6.90;;;;;;;;;;5020824;28;20096;-74
2023/06/26 02:01:42;;;;;;;8.57;6.03;;;;;;;;;;5017132;28;20030;-74
2023/06/26 02:04:08;;;;;;;8.90;7.10;;;;;;;;;;5018363;28;20088;-74
2023/06/26 02:06:34;;;;;;;8.10;6.95;;;;;;;;;;5018445;28;20045;-73
2023/06/26 02:09:00;;;;;;;9.70;6.55;;;;;;;;;;5017501;28;20379;-74
2023/06/26 02:11:26;;;;;;;8.10;7.30;;;;;;;;;;5018068;28;20037;-72
2023/06/26 02:13:52;;;;;;;9.02;6.55;;;;;;;;;;5016386;28;20577;-72
2023/06/26 02:16:18;;;;;;;9.15;7.43;;;;;;;;;;5019481;28;20076;-73
2023/06/26 02:18:44;;;;;;;8.68;7.05;;;;;;;;;;5016116;28;20038;-72
2023/06/26 02:21:10;;;;;;;12.63;7.60;;;;;;;;;;5019640;28;20522;-72
2023/06/26 02:23:37;;;;;;;8.02;6.65;;;;;;;;;;5019156;28;20436;-72
2023/06/26 02:26:03;;;;;;;8.88;7.90;;;;;;;;;;5016921;28;20029;-72
2023/06/26 02:28:30;;;;;;;9.98;7.75;;;;;;;;;;5021067;28;20116;-72
2023/06/26 02:30:56;;;;;;;9.82;7.10;;;;;;;;;;5018986;28;20038;-72
2023/06/26 02:33:23;;;;;;;9.98;7.68;;;;;;;;;;5019011;28;20585;-72
2023/06/26 02:35:50;;;;;;;12.93;7.57;;;;;;;;;;5018746;28;20125;-71
2023/06/26 02:38:16;;;;;;;15.15;7.50;;;;;;;;;;5018177;28;20053;-72
2023/06/26 02:40:42;;;;;;;11.38;7.97;;;;;;;;;;5020194;28;20041;-72
2023/06/26 02:43:08;;;;;;;8.30;7.50;;;;;;;;;;5019219;28;20057;-72
2023/06/26 02:45:34;;;;;;;10.82;8.15;;;;;;;;;;5019418;28;20495;-72
2023/06/26 02:48:00;;;;;;;9.25;8.23;;;;;;;;;;5018660;28;20037;-72
2023/06/26 02:50:26;;;;;;;10.00;8.25;;;;;;;;;;5018559;28;20216;-73
2023/06/26 02:52:52;;;;;;;8.90;8.00;;;;;;;;;;5018649;28;20044;-72
2023/06/26 02:55:19;;;;;;;9.10;7.93;;;;;;;;;;5018673;28;20458;-76
2023/06/26 02:57:45;;;;;;;14.95;8.15;;;;;;;;;;5049761;28;20034;-72
2023/06/26 03:00:12;;;;;;;9.52;8.40;;;;;;;;;;5016384;28;20034;-72
2023/06/26 03:02:38;;;;;;;11.05;8.63;;;;;;;;;;5017162;28;20103;-74
2023/06/26 03:05:05;;;;;;;11.75;8.88;;;;;;;;;;5016736;28;20534;-73
2023/06/26 03:07:31;;;;;;;69.45;52.90;;;;;;;;;;5017423;28;20104;-72
2023/06/26 03:09:57;;;;;;;14.07;10.63;;;;;;;;;;5019321;28;20053;-73
2023/06/26 03:12:24;;;;;;;9.93;8.95;;;;;;;;;;5019111;28;20072;-72
2023/06/26 03:14:50;;;;;;;10.32;8.60;;;;;;;;;;5017477;28;20216;-73
2023/06/26 03:17:16;;;;;;;12.32;8.20;;;;;;;;;;5051347;28;20184;-78
2023/06/26 03:19:42;;;;;;;8.40;7.50;;;;;;;;;;5012831;28;20042;-76
2023/06/26 03:22:08;;;;;;;9.07;7.80;;;;;;;;;;5018160;28;20091;-76
2023/06/26 03:24:34;;;;;;;13.50;6.78;;;;;;;;;;5051123;28;20034;-79
2023/06/26 03:27:00;;;;;;;9.48;7.10;;;;;;;;;;5019556;28;20380;-77
2023/06/26 03:29:26;;;;;;;9.00;6.72;;;;;;;;;;5017548;28;20038;-78
2023/06/26 03:31:52;;;;;;;12.27;6.35;;;;;;;;;;5020701;28;20079;-78
2023/06/26 03:34:18;;;;;;;17.05;7.28;;;;;;;;;;5020501;28;20087;-77
2023/06/26 03:36:44;;;;;;;9.68;5.75;;;;;;;;;;5019563;28;20127;-77
2023/06/26 03:39:10;;;;;;;9.55;5.80;;;;;;;;;;5018415;28;20065;-76
2023/06/26 03:41:36;;;;;;;22.42;15.63;;;;;;;;;;5051283;28;20026;-75
2023/06/26 03:44:03;;;;;;;10.20;7.35;;;;;;;;;;5021959;28;20103;-75
2023/06/26 03:46:29;;;;;;;12.02;6.53;;;;;;;;;;5052379;28;20431;-73
2023/06/26 03:48:55;;;;;;;9.30;6.28;;;;;;;;;;5021484;28;20052;-71
2023/06/26 03:51:21;;;;;;;11.88;6.40;;;;;;;;;;5020952;28;20036;-72
2023/06/26 03:53:47;;;;;;;10.07;5.97;;;;;;;;;;5022720;28;20045;-72
2023/06/26 03:56:14;;;;;;;10.90;6.55;;;;;;;;;;5051795;28;20033;-71
2023/06/26 03:58:40;;;;;;;19.27;7.32;;;;;;;;;;5021924;28;20120;-72
2023/06/26 04:01:06;;;;;;;12.38;6.70;;;;;;;;;;5020954;28;20291;-72
2023/06/26 04:03:32;;;;;;;12.50;6.57;;;;;;;;;;5018186;28;20136;-72
2023/06/26 04:05:58;;;;;;;15.68;7.82;;;;;;;;;;5022120;28;20495;-71
2023/06/26 04:08:27;;;;;;;15.15;6.55;;;;;;;;;;5021767;28;20088;-71
2023/06/26 04:10:55;;;;;;;14.55;7.20;;;;;;;;;;5018937;28;20099;-72
2023/06/26 04:13:21;;;;;;;14.45;6.80;;;;;;;;;;5020289;28;20030;-72
2023/06/26 04:15:47;;;;;;;17.20;7.20;;;;;;;;;;5019538;28;20034;-72
2023/06/26 04:18:13;;;;;;;13.52;7.35;;;;;;;;;;5052951;28;20044;-72
2023/06/26 04:20:40;;;;;;;11.02;6.97;;;;;;;;;;5020224;28;20038;-72
2023/06/26 04:23:06;;;;;;;14.40;7.90;;;;;;;;;;5052793;28;20550;-72
2023/06/26 04:25:32;;;;;;;16.30;8.57;;;;;;;;;;5022227;28;20105;-72
2023/06/26 04:27:58;;;;;;;17.08;8.57;;;;;;;;;;5019797;28;20025;-72
2023/06/26 04:30:24;;;;;;;19.42;7.90;;;;;;;;;;5020196;28;20143;-72
2023/06/26 04:32:50;;;;;;;17.98;9.77;;;;;;;;;;5020667;28;20263;-72
2023/06/26 04:35:20;;;;;;;22.90;8.95;;;;;;;;;;5020040;28;20578;-72
2023/06/26 04:37:46;;;;;;;15.27;8.43;;;;;;;;;;5030340;28;20037;-72
2023/06/26 04:40:13;;;;;;;15.32;8.02;;;;;;;;;;5021583;28;20491;-72
2023/06/26 04:42:39;;;;;;;16.42;8.23;;;;;;;;;;5020816;28;20081;-72
2023/06/26 04:45:05;;;;;;;18.05;9.30;;;;;;;;;;5018581;28;20042;-72
2023/06/26 04:47:31;;;;;;;15.18;7.78;;;;;;;;;;5018011;28;20037;-72
2023/06/26 04:49:57;;;;;;;20.42;8.10;;;;;;;;;;5021035;28;20037;-73
2023/06/26 04:52:23;;;;;;;14.63;7.40;;;;;;;;;;5015770;28;20239;-72
2023/06/26 04:54:49;;;;;;;10.88;6.65;;;;;;;;;;5019695;28;20049;-72
2023/06/26 04:57:17;;;;;;;12.30;6.10;;;;;;;;;;5020217;28;20122;-72
2023/06/26 04:59:43;;;;;;;14.35;5.85;;;;;;;;;;5020429;28;20026;-73
2023/06/26 05:02:10;;;;;;;9.02;5.32;;;;;;;;;;5020710;28;20022;-72
2023/06/26 05:04:36;;;;;;;16.77;6.10;;;;;;;;;;5019990;28;20044;-72
2023/06/26 05:07:02;;;;;;;16.33;5.80;;;;;;;;;;5019588;28;20785;-72
2023/06/26 05:09:28;;;;;;;12.18;5.38;;;;;;;;;;5019320;28;20117;-72
2023/06/26 05:11:54;;;;;;;19.55;6.30;;;;;;;;;;5018784;28;20036;-72
2023/06/26 05:14:20;;;;;;;23.20;5.00;;;;;;;;;;5054419;28;20026;-71
2023/06/26 05:16:46;;;;;;;17.00;4.65;;;;;;;;;;5021461;28;20522;-72
2023/06/26 05:19:12;;;;;;;13.88;4.35;;;;;;;;;;5023934;28;20041;-72
2023/06/26 05:21:38;;;;;;;12.10;4.28;;;;;;;;;;5019090;28;20029;-72
2023/06/26 05:24:05;;;;;;;11.13;4.07;;;;;;;;;;5019794;28;20514;-71
2023/06/26 05:26:31;;;;;;;11.32;3.75;;;;;;;;;;5021003;28;20029;-72
2023/06/26 05:28:57;;;;;;;10.50;4.72;;;;;;;;;;5020127;28;20403;-72
2023/06/26 05:31:23;;;;;;;17.45;3.50;;;;;;;;;;5019058;28;20159;-72
2023/06/26 05:33:50;;;;;;;10.20;3.20;;;;;;;;;;5020412;28;20035;-72
2023/06/26 05:36:17;;;;;;;13.50;3.70;;;;;;;;;;5020762;28;20052;-71
2023/06/26 05:38:43;;;;;;;19.02;4.22;;;;;;;;;;5019755;28;20021;-72
2023/06/26 05:41:09;;;;;;;11.20;3.70;;;;;;;;;;5019071;28;20210;-71
2023/06/26 05:43:35;;;;;;;12.57;3.40;;;;;;;;;;5020578;28;20064;-72
2023/06/26 05:46:01;;;;;;;10.95;3.20;;;;;;;;;;5023317;28;20025;-72
2023/06/26 05:48:27;;;;;;;9.45;3.10;;;;;;;;;;5028635;28;20033;-72
2023/06/26 05:50:55;;;;;;;14.65;3.38;;;;;;;;;;5053306;28;20116;-72
2023/06/26 05:53:21;;;;;;;11.80;2.83;;;;;;;;;;5029826;28;20038;-71
2023/06/26 05:55:48;;;;;;;11.07;3.05;;;;;;;;;;5024358;28;20037;-72
2023/06/26 05:58:15;;;;;;;11.80;3.88;;;;;;;;;;5031255;28;20039;-72
2023/06/26 06:00:41;;;;;;;12.13;3.17;;;;;;;;;;5028066;28;20475;-72
2023/06/26 06:03:07;;;;;;;11.57;3.03;;;;;;;;;;5029175;28;20105;-72
2023/06/26 06:05:33;;;;;;;10.95;2.95;;;;;;;;;;5030448;28;20068;-72
2023/06/26 06:07:59;;;;;;;15.60;3.92;;;;;;;;;;5030218;28;20504;-72
2023/06/26 06:10:25;;;;;;;10.48;3.03;;;;;;;;;;5026836;28;20032;-72
2023/06/26 06:12:52;;;;;;;12.13;3.25;;;;;;;;;;5028345;28;20080;-73
2023/06/26 06:15:18;;;;;;;8.82;3.30;;;;;;;;;;5026944;28;20099;-72
2023/06/26 06:17:44;;;;;;;10.50;2.70;;;;;;;;;;5026493;28;20046;-73
2023/06/26 06:20:10;;;;;;;8.82;2.58;;;;;;;;;;5037736;28;20109;-72
2023/06/26 06:22:36;;;;;;;12.15;2.70;;;;;;;;;;5015904;28;20030;-72
2023/06/26 06:25:02;;;;;;;12.20;3.22;;;;;;;;;;5027056;28;20413;-72
2023/06/26 06:27:28;;;;;;;10.30;2.47;;;;;;;;;;5023397;28;20060;-72
2023/06/26 06:29:54;;;;;;;10.07;2.17;;;;;;;;;;5027805;28;20029;-72
2023/06/26 06:32:20;;;;;;;8.55;2.55;;;;;;;;;;5020574;28;20116;-75
2023/06/26 06:34:46;;;;;;;12.57;2.60;;;;;;;;;;5020410;28;20144;-74
2023/06/26 06:37:12;;;;;;;7.38;1.98;;;;;;;;;;5021072;28;20021;-72
2023/06/26 06:39:38;;;;;;;6.03;1.75;;;;;;;;;;5024022;28;20037;-73
2023/06/26 06:42:04;;;;;;;7.50;2.10;;;;;;;;;;5023779;28;20464;-73
2023/06/26 06:44:30;;;;;;;9.82;2.58;;;;;;;;;;5025044;28;20021;-73
2023/06/26 06:46:57;;;;;;;15.00;2.67;;;;;;;;;;5027030;28;20029;-73
2023/06/26 06:49:23;;;;;;;72.63;52.42;;;;;;;;;;5021474;28;20018;-82
2023/06/26 06:51:48;;;;;;;9.32;3.83;;;;;;;;;;5028819;28;20041;-80
2023/06/26 06:54:16;;;;;;;8.18;2.17;;;;;;;;;;5023991;28;20045;-74
2023/06/26 06:56:42;;;;;;;10.32;2.45;;;;;;;;;;5036234;28;20104;-80
2023/06/26 06:59:08;;;;;;;10.25;2.30;;;;;;;;;;5021245;28;20447;-78
2023/06/26 07:01:34;;;;;;;9.00;2.33;;;;;;;;;;5026650;28;20025;-78
2023/06/26 07:04:00;;;;;;;8.00;1.92;;;;;;;;;;5030561;28;20021;-78
2023/06/26 07:06:26;;;;;;;7.60;1.65;;;;;;;;;;5066378;28;20064;-76
2023/06/26 07:08:52;;;;;;;7.60;2.00;;;;;;;;;;5033853;28;20102;-75
2023/06/26 07:11:18;;;;;;;6.53;1.90;;;;;;;;;;5029020;28;20033;-75
2023/06/26 07:13:44;;;;;;;47.05;32.88;;;;;;;;;;5034102;28;20032;-76
2023/06/26 07:16:11;;;;;;;12.27;7.30;;;;;;;;;;5044528;28;20068;-77
2023/06/26 07:18:38;;;;;;;8.30;3.15;;;;;;;;;;5026840;28;20485;-76
2023/06/26 07:21:04;;;;;;;3.80;1.30;;;;;;;;;;5022059;28;20402;-74
2023/06/26 07:23:30;;;;;;;3.00;1.35;;;;;;;;;;5033436;28;20037;-76
2023/06/26 07:25:56;;;;;;;5.97;1.48;;;;;;;;;;5028303;28;20114;-74
2023/06/26 07:28:22;;;;;;;5.20;1.42;;;;;;;;;;5030756;28;20037;-75
2023/06/26 07:30:48;;;;;;;8.07;1.73;;;;;;;;;;5032672;28;20512;-77
2023/06/26 07:33:14;;;;;;;4.22;1.55;;;;;;;;;;5033130;28;20033;-75
2023/06/26 07:35:40;;;;;;;3.55;1.70;;;;;;;;;;5024989;28;20048;-78
2023/06/26 07:38:06;;;;;;;19.23;11.57;;;;;;;;;;5016450;28;20530;-77
2023/06/26 07:40:32;;;;;;;8.65;6.40;;;;;;;;;;5065229;28;20133;-79
2023/06/26 07:42:58;;;;;;;4.68;1.80;;;;;;;;;;5031964;28;20091;-77
2023/06/26 07:45:24;;;;;;;5.60;1.73;;;;;;;;;;5032588;28;20390;-83
2023/06/26 07:47:50;;;;;;;3.95;1.20;;;;;;;;;;5026298;28;20040;-84
2023/06/26 07:50:21;;;;;;;7.22;1.50;;;;;;;;;;5029848;28;20037;-84
2023/06/26 07:52:47;;;;;;;5.28;1.73;;;;;;;;;;5030280;28;20395;-84
2023/06/26 07:55:13;;;;;;;5.68;1.60;;;;;;;;;;5027074;28;20095;-82
2023/06/26 07:57:39;;;;;;;4.05;1.70;;;;;;;;;;5052760;28;20022;-84
2023/06/26 08:00:06;;;;;;;4.25;1.63;;;;;;;;;;5023626;28;20475;-85
2023/06/26 08:02:32;;;;;;;7.05;1.65;;;;;;;;;;5032844;28;20034;-83
2023/06/26 08:04:58;;;;;;;6.65;1.60;;;;;;;;;;5032047;28;20406;-82
2023/06/26 08:07:24;;;;;;;7.95;1.65;;;;;;;;;;5033695;28;20048;-81
2023/06/26 08:09:50;;;;;;;7.47;1.60;;;;;;;;;;5031246;28;20108;-85
2023/06/26 08:12:16;;;;;;;16.92;8.75;;;;;;;;;;5025110;28;20109;-83
2023/06/26 08:14:42;;;;;;;86.53;63.08;;;;;;;;;;5052628;28;20351;-83
2023/06/26 08:17:08;;;;;;;10.57;2.17;;;;;;;;;;5019683;28;20037;-82
2023/06/26 08:19:34;;;;;;;7.68;2.03;;;;;;;;;;5020638;28;20963;-74
2023/06/26 08:22:00;;;;;;;10.68;1.80;;;;;;;;;;5024908;28;20018;-74
2023/06/26 08:24:26;;;;;;;4.50;1.60;;;;;;;;;;5007159;28;20037;-74
2023/06/26 08:26:52;;;;;;;4.53;1.60;;;;;;;;;;5021642;28;20036;-74
2023/06/26 08:29:18;;;;;;;9.60;1.50;;;;;;;;;;5052670;28;20096;-75
2023/06/26 08:31:44;;;;;;;4.93;1.60;;;;;;;;;;5019278;28;20429;-74
2023/06/26 08:34:10;;;;;;;6.53;2.10;;;;;;;;;;5021950;28;20475;-75
2023/06/26 08:36:37;;;;;;;6.53;1.70;;;;;;;;;;5052404;28;20084;-74
2023/06/26 08:39:04;;;;;;;6.55;1.30;;;;;;;;;;5017367;28;20030;-74
2023/06/26 08:41:31;;;;;;;5.60;1.58;;;;;;;;;;5025267;28;20570;-74
2023/06/26 08:43:57;;;;;;;4.32;1.35;;;;;;;;;;5024272;28;20048;-74
2023/06/26 08:46:23;;;;;;;4.38;1.48;;;;;;;;;;5020484;28;20030;-74
2023/06/26 08:48:52;;;;;;;3.15;1.10;;;;;;;;;;5022453;28;20044;-74
2023/06/26 08:51:18;;;;;;;4.60;1.80;;;;;;;;;;5022398;28;20029;-74
2023/06/26 08:53:44;;;;;;;7.72;1.80;;;;;;;;;;5019670;28;20041;-73
2023/06/26 08:56:12;;;;;;;4.22;1.40;;;;;;;;;;5019447;28;20181;-74
2023/06/26 08:58:39;;;;;;;3.65;1.88;;;;;;;;;;5019979;28;20030;-75
2023/06/26 09:01:05;;;;;;;8.32;2.30;;;;;;;;;;5019972;28;20177;-75
2023/06/26 09:03:32;;;;;;;6.10;2.38;;;;;;;;;;5018276;28;20026;-75
2023/06/26 09:05:58;;;;;;;6.28;2.17;;;;;;;;;;5020824;28;20025;-75
2023/06/26 09:08:24;;;;;;;5.72;1.98;;;;;;;;;;5019069;28;20133;-75
2023/06/26 09:10:52;;;;;;;5.65;2.25;;;;;;;;;;5015223;28;20065;-75
2023/06/26 09:13:18;;;;;;;6.80;1.90;;;;;;;;;;5017768;28;20033;-75
2023/06/26 09:15:45;;;;;;;6.22;2.63;;;;;;;;;;5018937;28;20401;-75
2023/06/26 09:18:12;;;;;;;5.85;2.30;;;;;;;;;;5021619;28;20115;-74
2023/06/26 09:20:38;;;;;;;5.65;1.90;;;;;;;;;;5020955;28;20041;-74
2023/06/26 09:23:05;;;;;;;6.40;2.55;;;;;;;;;;5020755;28;20044;-75
2023/06/26 09:25:31;;;;;;;8.35;2.28;;;;;;;;;;5020268;28;20483;-75
2023/06/26 09:27:58;;;;;;;8.25;2.55;;;;;;;;;;5051223;28;20083;-75
2023/06/26 09:30:24;;;;;;;5.63;2.30;;;;;;;;;;5022491;28;20529;-75
2023/06/26 09:32:54;;;;;;;4.43;2.30;;;;;;;;;;5018558;28;20066;-75
2023/06/26 09:35:20;;;;;;;8.02;2.70;;;;;;;;;;5018287;28;20052;-75
2023/06/26 09:37:46;;;;;;;5.63;2.45;;;;;;;;;;5021616;28;20033;-75
2023/06/26 09:40:14;;;;;;;7.18;2.00;;;;;;;;;;5021612;28;20493;-75
2023/06/26 09:42:40;;;;;;;5.68;2.42;;;;;;;;;;5019824;28;20029;-74
2023/06/26 09:45:06;;;;;;;8.00;2.55;;;;;;;;;;5015028;28;20045;-75
2023/06/26 09:47:34;;;;;;;8.18;2.65;;;;;;;;;;5048999;28;20042;-75
2023/06/26 09:50:21;;;;;;;21.98;14.25;;;;;;;;;;5094567;27;20775;-78
2023/06/26 09:52:47;;;;;;;7.97;4.05;;;;;;;;;;5105515;28;20057;-76
2023/06/26 09:55:13;;;;;;;5.18;1.77;;;;;;;;;;5108693;28;20028;-77
2023/06/26 09:57:40;;;;;;;3.78;1.60;;;;;;;;;;5102633;28;20036;-75
2023/06/26 10:00:08;;;;;;;4.72;1.95;;;;;;;;;;5094127;28;20123;-76
2023/06/26 10:02:34;;;;;;;6.55;2.40;;;;;;;;;;5102179;28;20035;-75
2023/06/26 10:05:00;;;;;;;6.80;2.08;;;;;;;;;;5102312;27;20492;-74
2023/06/26 10:07:26;;;;;;;6.63;2.17;;;;;;;;;;5098821;28;20028;-73
2023/06/26 10:09:56;;;;;;;6.50;2.33;;;;;;;;;;5097651;28;20078;-73
2023/06/26 10:12:30;;;;;;;14.35;7.57;;;;;;;;;;5092835;28;20470;-74
2023/06/26 10:15:00;;;;;;;7.28;2.20;;;;;;;;;;5097663;28;20339;-75
2023/06/26 10:17:29;;;;;;;6.65;2.10;;;;;;;;;;5098471;28;20384;-74
2023/06/26 10:19:56;;;;;;;9.00;2.38;;;;;;;;;;5097494;28;20027;-73
2023/06/26 10:22:25;;;;;;;10.60;1.90;;;;;;;;;;5094563;28;20064;-74
2023/06/26 10:24:51;;;;;;;6.78;2.15;;;;;;;;;;5095384;28;20031;-72
2023/06/26 10:27:19;;;;;;;9.20;2.10;;;;;;;;;;5097144;28;20035;-74
2023/06/26 10:29:46;;;;;;;7.00;2.05;;;;;;;;;;5099957;28;20036;-72
2023/06/26 10:32:13;;;;;;;7.35;2.13;;;;;;;;;;5104859;28;20422;-71
2023/06/26 10:34:39;;;;;;;8.07;1.80;;;;;;;;;;5095173;28;20036;-80
2023/06/26 10:37:05;;;;;;;6.45;1.77;;;;;;;;;;5102734;28;20033;-83
2023/06/26 10:39:49;;;;;;;4.82;1.67;;;;;;;;;;5103535;28;20031;-83
2023/06/26 10:42:16;;;;;;;4.85;1.83;;;;;;;;;;5101315;28;20111;-74
2023/06/26 10:44:43;;;;;;;9.38;2.13;;;;;;;;;;5098856;28;20131;-75
2023/06/26 10:47:09;;;;;;;7.32;1.83;;;;;;;;;;5100333;28;20051;-75
2023/06/26 10:49:36;;;;;;;8.93;2.17;;;;;;;;;;5102269;28;20052;-74
2023/06/26 10:52:02;;;;;;;6.57;1.83;;;;;;;;;;5100483;27;20053;-75
2023/06/26 10:54:29;;;;;;;18.42;9.35;;;;;;;;;;5101806;28;20027;-75
2023/06/26 10:56:59;;;;;;;8.30;2.42;;;;;;;;;;5094831;28;20040;-79
2023/06/26 10:59:27;;;;;;;7.30;1.80;;;;;;;;;;5100371;28;20081;-73
2023/06/26 11:01:56;;;;;;;4.78;1.55;;;;;;;;;;5091063;28;20027;-73
2023/06/26 11:04:38;;;;;;;7.18;1.58;;;;;;;;;;5079517;28;20076;-75
2023/06/26 11:07:23;;;;;;;9.35;2.38;;;;;;;;;;5082385;28;20039;-75
2023/06/26 11:10:03;;;;;;;3.67;1.52;;;;;;;;;;5083166;28;20047;-75
2023/06/26 11:12:35;;;;;;;6.10;1.30;;;;;;;;;;5083944;28;20047;-75
2023/06/26 11:15:01;;;;;;;7.05;1.50;;;;;;;;;;5080019;28;20025;-75
2023/06/26 11:17:28;;;;;;;4.78;1.65;;;;;;;;;;5078729;28;20079;-74
2023/06/26 11:19:55;;;;;;;10.20;1.60;;;;;;;;;;5079528;28;20553;-75
2023/06/26 11:22:22;;;;;;;7.32;2.08;;;;;;;;;;5077450;28;20119;-74
2023/06/26 11:24:49;;;;;;;5.60;1.05;;;;;;;;;;5075139;28;20086;-75
2023/06/26 11:27:15;;;;;;;6.22;1.33;;;;;;;;;;5078454;28;20096;-74
2023/06/26 11:29:48;;;;;;;5.20;1.40;;;;;;;;;;5079800;28;20047;-74
2023/06/26 11:32:14;;;;;;;5.90;1.38;;;;;;;;;;5101169;28;20040;-75
2023/06/26 11:34:42;;;;;;;9.45;1.60;;;;;;;;;;5076266;28;20028;-75
2023/06/26 11:37:08;;;;;;;5.32;1.50;;;;;;;;;;5092783;28;20028;-75
2023/06/26 11:39:35;;;;;;;4.90;1.42;;;;;;;;;;5086761;28;20059;-74
2023/06/26 11:42:01;;;;;;;11.35;1.92;;;;;;;;;;5085365;28;20028;-75
2023/06/26 11:44:31;;;;;;;4.72;1.35;;;;;;;;;;5088212;28;20561;-75
2023/06/26 11:46:57;;;;;;;13.23;1.88;;;;;;;;;;5091811;28;20024;-74
2023/06/26 11:49:26;;;;;;;5.65;1.67;;;;;;;;;;5092721;28;20497;-74
2023/06/26 11:51:54;;;;;;;7.60;1.60;;;;;;;;;;5090179;28;20032;-74
2023/06/26 11:54:27;;;;;;;4.10;1.65;;;;;;;;;;5092507;28;20365;-75
2023/06/26 11:56:56;;;;;;;8.23;1.60;;;;;;;;;;5084480;28;20058;-75
2023/06/26 11:59:22;;;;;;;5.55;1.48;;;;;;;;;;5089168;28;20077;-75
2023/06/26 12:01:50;;;;;;;9.45;2.13;;;;;;;;;;5080225;28;20119;-76
2023/06/26 12:04:17;;;;;;;3.75;1.23;;;;;;;;;;5091442;28;20027;-75
2023/06/26 12:06:49;;;;;;;5.60;1.60;;;;;;;;;;5092681;28;20031;-75
2023/06/26 12:09:16;;;;;;;8.38;1.33;;;;;;;;;;5090002;28;20061;-75
2023/06/26 12:11:43;;;;;;;6.28;1.92;;;;;;;;;;5088436;28;20024;-75
2023/06/26 12:14:10;;;;;;;5.20;1.60;;;;;;;;;;5089082;28;20032;-75
2023/06/26 12:16:37;;;;;;;6.78;2.20;;;;;;;;;;5084653;28;20035;-74
2023/06/26 12:19:04;;;;;;;8.27;1.70;;;;;;;;;;5082110;28;20036;-75
2023/06/26 12:21:45;;;;;;;10.13;1.90;;;;;;;;;;5078526;28;20032;-74
2023/06/26 12:24:19;;;;;;;12.02;1.85;;;;;;;;;;5090235;28;20412;-74
2023/06/26 12:26:46;;;;;;;10.25;2.20;;;;;;;;;;5091863;28;20494;-74
2023/06/26 12:29:13;;;;;;;6.25;1.27;;;;;;;;;;5090481;28;20638;-74
2023/06/26 12:31:46;;;;;;;3.92;1.38;;;;;;;;;;5090321;28;20123;-75
2023/06/26 12:34:17;;;;;;;9.82;2.00;;;;;;;;;;5086099;28;20028;-74
2023/06/26 12:36:44;;;;;;;5.47;1.40;;;;;;;;;;5078727;28;20020;-74
2023/06/26 12:39:14;;;;;;;9.85;1.95;;;;;;;;;;5074241;28;20574;-74
2023/06/26 12:41:46;;;;;;;4.25;1.50;;;;;;;;;;5077108;28;20021;-74
2023/06/26 12:44:39;;;;;;;7.68;1.55;;;;;;;;;;5077028;28;20036;-74
2023/06/26 12:47:06;;;;;;;7.80;1.45;;;;;;;;;;5079078;28;20044;-75
2023/06/26 12:49:38;;;;;;;7.10;1.70;;;;;;;;;;5079698;28;20056;-74
2023/06/26 12:52:11;;;;;;;7.57;1.30;;;;;;;;;;5080806;28;20497;-74
2023/06/26 12:54:38;;;;;;;10.20;2.55;;;;;;;;;;5072375;28;20032;-73
2023/06/26 12:57:04;;;;;;;9.43;2.28;;;;;;;;;;5083196;28;20036;-74
2023/06/26 12:59:31;;;;;;;9.02;1.52;;;;;;;;;;5084945;28;20068;-77
2023/06/26 13:01:57;;;;;;;7.93;1.52;;;;;;;;;;5091394;28;20027;-77
2023/06/26 13:04:23;;;;;;;5.95;1.55;;;;;;;;;;5087372;28;20115;-78
2023/06/26 13:06:49;;;;;;;9.57;2.90;;;;;;;;;;5078792;28;20499;-84
2023/06/26 13:09:16;;;;;;;10.85;2.90;;;;;;;;;;5077594;28;20052;-71
2023/06/26 13:11:42;;;;;;;12.77;8.93;;;;;;;;;;5086965;28;20036;-72
2023/06/26 13:14:08;;;;;;;7.55;2.03;;;;;;;;;;5071147;28;20032;-71
2023/06/26 13:16:34;;;;;;;7.28;1.50;;;;;;;;;;5090751;28;20044;-73
2023/06/26 13:19:01;;;;;;;5.78;1.10;;;;;;;;;;5081527;28;20123;-88
2023/06/26 13:21:28;;;;;;;5.72;1.17;;;;;;;;;;5092937;28;20024;-87
2023/06/26 13:23:55;;;;;;;5.60;1.10;;;;;;;;;;5083279;28;20491;-78
2023/06/26 13:26:21;;;;;;;5.85;1.40;;;;;;;;;;5094192;28;20032;-85
2023/06/26 13:28:48;;;;;;;4.38;1.20;;;;;;;;;;5088118;28;20069;-79
2023/06/26 13:31:14;;;;;;;8.18;1.30;;;;;;;;;;5095721;28;20122;-78
2023/06/26 13:33:40;;;;;;;4.80;1.30;;;;;;;;;;5097847;28;20505;-84
2023/06/26 13:36:06;;;;;;;11.15;1.80;;;;;;;;;;5095008;28;20033;-78
2023/06/26 13:38:35;;;;;;;6.40;1.40;;;;;;;;;;5087360;28;20043;-79
2023/06/26 13:41:01;;;;;;;11.40;2.05;;;;;;;;;;5087227;28;20051;-79
2023/06/26 13:43:28;;;;;;;3.75;0.98;;;;;;;;;;5091379;28;20038;-80
2023/06/26 13:45:54;;;;;;;10.75;4.10;;;;;;;;;;5103410;28;20085;-87
2023/06/26 13:48:20;;;;;;;6.63;3.22;;;;;;;;;;5082453;28;20047;-89
2023/06/26 13:50:47;;;;;;;6.07;1.80;;;;;;;;;;5096235;28;20031;-90
2023/06/26 13:53:13;;;;;;;7.60;1.95;;;;;;;;;;5086675;28;20733;-84
2023/06/26 13:55:39;;;;;;;5.90;1.70;;;;;;;;;;5083000;28;20066;-84
2023/06/26 13:58:05;;;;;;;6.60;1.77;;;;;;;;;;5081288;28;20032;-82
2023/06/26 14:00:33;;;;;;;8.43;1.80;;;;;;;;;;5087037;28;20021;-82
2023/06/26 14:02:59;;;;;;;14.50;1.80;;;;;;;;;;5071437;28;20028;-79
2023/06/26 14:05:25;;;;;;;11.73;1.77;;;;;;;;;;5088680;28;20168;-81
2023/06/26 14:07:51;;;;;;;6.50;1.65;;;;;;;;;;5089135;28;20082;-83
2023/06/26 14:10:17;;;;;;;9.45;1.45;;;;;;;;;;5092028;28;20675;-83
2023/06/26 14:12:43;;;;;;;8.10;1.30;;;;;;;;;;5089842;28;20399;-87
2023/06/26 14:15:09;;;;;;;5.63;1.20;;;;;;;;;;5082186;28;20119;-83
2023/06/26 14:17:35;;;;;;;2.88;1.20;;;;;;;;;;5085609;28;20070;-83
2023/06/26 14:20:01;;;;;;;9.50;1.45;;;;;;;;;;5087463;28;20051;-75
2023/06/26 14:22:27;;;;;;;9.30;1.70;;;;;;;;;;5081501;28;20378;-74
2023/06/26 14:24:53;;;;;;;6.68;1.88;;;;;;;;;;5077632;28;20024;-74
2023/06/26 14:27:19;;;;;;;6.45;1.30;;;;;;;;;;5086312;28;20040;-75
2023/06/26 14:29:45;;;;;;;9.35;1.48;;;;;;;;;;5090141;28;20047;-75
2023/06/26 14:32:11;;;;;;;9.32;2.20;;;;;;;;;;5088955;28;20051;-75
2023/06/26 14:34:37;;;;;;;10.75;1.60;;;;;;;;;;5086730;28;20485;-75
2023/06/26 14:37:03;;;;;;;8.50;1.30;;;;;;;;;;5083078;28;20059;-78